Terminal Aerodrome Forecast
Issued by NWS Sioux Falls, SD

Home | Current Version | Previous Version | Text Only | Print | Product List | Glossary Off
Versions: 1 2 3 4 5 6 7 8 9 10 11 12 13 14 15 16 17 18

556
FTUS43 KFSD 140520
TAFHON
TAF
KHON 140520Z 1406/1506 16017G26KT 6SM -SN OVC035
     FM140700 16016G26KT 2SM -SN BLSN OVC025
      TEMPO 1407/1409 1 1/2SM -SN BKN015
     FM141000 16014KT 3SM -SN OVC020
     FM141200 18007KT P6SM OVC025
     FM142000 19006KT P6SM SCT250
     FM150300 27006KT P6SM BKN150=

USA.gov is the U.S. government's official web portal to all federal, state and local government web resources and services.